Fort Laramie, Wyoming
Current Conditions -  °F | °C
As of 9:35 AM on Thursday 29 Jan 2015 (Local Time) from KGUR Reporting Station
Clear Clear  
Wind Chill: 39°   Ceiling: Unl
Heat Index: 43°   Visibility: 10mi
Dew Point: 28°   Wind: 6mph
Humidity: 56%   Direction: 250°WSW
Pressure: 30.5"   Gusts: NA
Location:  42.21°N, 104.52°W
Report Text: KGUR 291635Z AUTO 25005KT 10SM CLR 06/M02 A3050 RMK AO2 T00611022
Loading
Personal Weather Stations






























Interactive Weather Map New forecast layout! Learn more

10-Day Weather Forecast

Advertisements
Track Severe Weather on mobile